sensor_id;sensor_type;location;lat;lon;timestamp;temperature;humidity
23633;DHT22;11993;48.748;9.166;2022-09-09T00:00:59;15.90;67.30
23633;DHT22;11993;48.748;9.166;2022-09-09T00:03:27;15.90;67.50
23633;DHT22;11993;48.748;9.166;2022-09-09T00:06:13;16.00;67.20
23633;DHT22;11993;48.748;9.166;2022-09-09T00:08:58;15.90;67.30
23633;DHT22;11993;48.748;9.166;2022-09-09T00:11:29;15.90;67.40
23633;DHT22;11993;48.748;9.166;2022-09-09T00:13:57;16.00;66.90
23633;DHT22;11993;48.748;9.166;2022-09-09T00:16:27;15.90;67.00
23633;DHT22;11993;48.748;9.166;2022-09-09T00:21:35;16.00;67.20
23633;DHT22;11993;48.748;9.166;2022-09-09T00:24:08;16.00;67.00
23633;DHT22;11993;48.748;9.166;2022-09-09T00:26:40;16.00;67.00
23633;DHT22;11993;48.748;9.166;2022-09-09T00:31:34;16.10;66.70
23633;DHT22;11993;48.748;9.166;2022-09-09T00:34:09;16.00;67.00
23633;DHT22;11993;48.748;9.166;2022-09-09T00:36:38;16.10;66.60
23633;DHT22;11993;48.748;9.166;2022-09-09T00:39:05;16.10;66.40
23633;DHT22;11993;48.748;9.166;2022-09-09T00:58:10;16.30;65.30
23633;DHT22;11993;48.748;9.166;2022-09-09T01:00:52;16.30;65.30
23633;DHT22;11993;48.748;9.166;2022-09-09T01:09:00;16.10;66.30
23633;DHT22;11993;48.748;9.166;2022-09-09T01:11:37;16.20;65.80
23633;DHT22;11993;48.748;9.166;2022-09-09T01:14:19;16.20;66.00
23633;DHT22;11993;48.748;9.166;2022-09-09T01:16:50;16.30;65.70
23633;DHT22;11993;48.748;9.166;2022-09-09T01:19:24;16.20;65.80
23633;DHT22;11993;48.748;9.166;2022-09-09T01:22:08;16.10;66.10
23633;DHT22;11993;48.748;9.166;2022-09-09T01:24:40;16.00;66.60
23633;DHT22;11993;48.748;9.166;2022-09-09T01:27:08;16.10;66.30
23633;DHT22;11993;48.748;9.166;2022-09-09T01:29:36;16.10;66.30
23633;DHT22;11993;48.748;9.166;2022-09-09T01:32:50;16.10;66.20
23633;DHT22;11993;48.748;9.166;2022-09-09T01:34:50;16.20;66.00
23633;DHT22;11993;48.748;9.166;2022-09-09T01:37:16;16.10;66.00
23633;DHT22;11993;48.748;9.166;2022-09-09T01:39:43;16.10;65.90
23633;DHT22;11993;48.748;9.166;2022-09-09T01:42:12;16.10;66.00
23633;DHT22;11993;48.748;9.166;2022-09-09T01:44:38;16.20;65.90
23633;DHT22;11993;48.748;9.166;2022-09-09T01:47:04;16.20;65.70
23633;DHT22;11993;48.748;9.166;2022-09-09T01:49:31;16.40;65.20
23633;DHT22;11993;48.748;9.166;2022-09-09T01:51:58;16.40;65.30
23633;DHT22;11993;48.748;9.166;2022-09-09T01:54:29;16.50;65.10
23633;DHT22;11993;48.748;9.166;2022-09-09T01:57:01;16.60;64.70
23633;DHT22;11993;48.748;9.166;2022-09-09T02:02:18;16.60;64.70
23633;DHT22;11993;48.748;9.166;2022-09-09T02:04:49;16.50;64.60
23633;DHT22;11993;48.748;9.166;2022-09-09T02:07:42;16.60;64.70
23633;DHT22;11993;48.748;9.166;2022-09-09T02:10:32;16.60;64.30
23633;DHT22;11993;48.748;9.166;2022-09-09T02:13:05;16.60;64.40
23633;DHT22;11993;48.748;9.166;2022-09-09T02:15:36;16.60;64.80
23633;DHT22;11993;48.748;9.166;2022-09-09T02:18:06;16.40;65.10
23633;DHT22;11993;48.748;9.166;2022-09-09T02:20:34;16.30;65.60
23633;DHT22;11993;48.748;9.166;2022-09-09T02:23:02;16.30;65.90
23633;DHT22;11993;48.748;9.166;2022-09-09T02:25:29;16.40;65.80
23633;DHT22;11993;48.748;9.166;2022-09-09T02:27:55;16.30;65.70
23633;DHT22;11993;48.748;9.166;2022-09-09T02:30:23;16.40;65.60
23633;DHT22;11993;48.748;9.166;2022-09-09T02:32:50;16.40;65.70
23633;DHT22;11993;48.748;9.166;2022-09-09T02:35:21;16.40;65.50
23633;DHT22;11993;48.748;9.166;2022-09-09T02:37:48;16.30;65.40
23633;DHT22;11993;48.748;9.166;2022-09-09T02:40:16;16.40;65.40
23633;DHT22;11993;48.748;9.166;2022-09-09T02:42:44;16.40;65.50
23633;DHT22;11993;48.748;9.166;2022-09-09T02:45:21;16.30;65.70
23633;DHT22;11993;48.748;9.166;2022-09-09T02:51:15;16.30;66.10
23633;DHT22;11993;48.748;9.166;2022-09-09T02:53:50;16.20;66.60
23633;DHT22;11993;48.748;9.166;2022-09-09T02:56:20;16.20;66.60
23633;DHT22;11993;48.748;9.166;2022-09-09T02:58:46;16.20;66.50
23633;DHT22;11993;48.748;9.166;2022-09-09T03:01:12;16.30;66.40
23633;DHT22;11993;48.748;9.166;2022-09-09T03:03:38;16.30;66.20
23633;DHT22;11993;48.748;9.166;2022-09-09T03:06:05;16.00;67.20
23633;DHT22;11993;48.748;9.166;2022-09-09T03:08:31;16.10;67.10
23633;DHT22;11993;48.748;9.166;2022-09-09T03:10:59;16.10;67.30
23633;DHT22;11993;48.748;9.166;2022-09-09T03:13:26;16.20;66.70
23633;DHT22;11993;48.748;9.166;2022-09-09T03:15:52;16.00;67.20
23633;DHT22;11993;48.748;9.166;2022-09-09T03:18:17;16.10;67.00
23633;DHT22;11993;48.748;9.166;2022-09-09T03:20:43;16.20;66.80
23633;DHT22;11993;48.748;9.166;2022-09-09T03:23:09;16.20;67.00
23633;DHT22;11993;48.748;9.166;2022-09-09T03:25:34;16.00;67.60
23633;DHT22;11993;48.748;9.166;2022-09-09T03:28:01;15.70;68.80
23633;DHT22;11993;48.748;9.166;2022-09-09T03:30:27;15.80;68.50
23633;DHT22;11993;48.748;9.166;2022-09-09T03:32:53;15.80;68.40
23633;DHT22;11993;48.748;9.166;2022-09-09T03:35:20;15.60;69.10
23633;DHT22;11993;48.748;9.166;2022-09-09T03:37:46;15.70;69.00
23633;DHT22;11993;48.748;9.166;2022-09-09T03:40:12;15.60;69.20
23633;DHT22;11993;48.748;9.166;2022-09-09T03:42:38;15.60;69.20
23633;DHT22;11993;48.748;9.166;2022-09-09T03:45:06;15.40;70.00
23633;DHT22;11993;48.748;9.166;2022-09-09T03:47:32;15.40;70.30
23633;DHT22;11993;48.748;9.166;2022-09-09T03:49:58;15.30;70.20
23633;DHT22;11993;48.748;9.166;2022-09-09T03:52:23;15.50;70.10
23633;DHT22;11993;48.748;9.166;2022-09-09T03:54:50;15.40;70.20
23633;DHT22;11993;48.748;9.166;2022-09-09T03:57:16;15.30;70.60
23633;DHT22;11993;48.748;9.166;2022-09-09T03:59:42;15.30;70.60
23633;DHT22;11993;48.748;9.166;2022-09-09T04:02:08;15.40;70.40
23633;DHT22;11993;48.748;9.166;2022-09-09T04:04:34;15.20;71.20
23633;DHT22;11993;48.748;9.166;2022-09-09T04:07:00;15.10;71.60
23633;DHT22;11993;48.748;9.166;2022-09-09T04:09:25;14.90;72.10
23633;DHT22;11993;48.748;9.166;2022-09-09T04:11:51;14.70;72.90
23633;DHT22;11993;48.748;9.166;2022-09-09T04:14:18;14.90;72.50
23633;DHT22;11993;48.748;9.166;2022-09-09T04:16:44;14.90;72.50
23633;DHT22;11993;48.748;9.166;2022-09-09T04:19:10;14.80;72.90
23633;DHT22;11993;48.748;9.166;2022-09-09T04:21:38;14.80;72.80
23633;DHT22;11993;48.748;9.166;2022-09-09T04:24:05;14.90;72.40
23633;DHT22;11993;48.748;9.166;2022-09-09T04:26:31;14.80;72.70
23633;DHT22;11993;48.748;9.166;2022-09-09T04:28:56;14.90;72.60
23633;DHT22;11993;48.748;9.166;2022-09-09T04:31:22;14.70;72.80
23633;DHT22;11993;48.748;9.166;2022-09-09T04:33:52;14.90;72.80
23633;DHT22;11993;48.748;9.166;2022-09-09T04:36:18;14.70;72.80
23633;DHT22;11993;48.748;9.166;2022-09-09T04:38:45;14.80;72.90
23633;DHT22;11993;48.748;9.166;2022-09-09T04:41:11;14.60;73.30
23633;DHT22;11993;48.748;9.166;2022-09-09T04:43:37;14.60;73.70
23633;DHT22;11993;48.748;9.166;2022-09-09T04:46:04;14.60;73.70
23633;DHT22;11993;48.748;9.166;2022-09-09T04:48:29;14.70;74.00
23633;DHT22;11993;48.748;9.166;2022-09-09T04:51:02;14.70;74.00
23633;DHT22;11993;48.748;9.166;2022-09-09T04:53:29;14.80;74.20
23633;DHT22;11993;48.748;9.166;2022-09-09T04:56:07;14.70;74.40
23633;DHT22;11993;48.748;9.166;2022-09-09T04:58:33;14.60;74.60
23633;DHT22;11993;48.748;9.166;2022-09-09T05:01:10;14.60;74.70
23633;DHT22;11993;48.748;9.166;2022-09-09T05:03:36;14.60;74.40
23633;DHT22;11993;48.748;9.166;2022-09-09T05:06:10;14.50;74.80
23633;DHT22;11993;48.748;9.166;2022-09-09T05:08:41;14.60;74.90
23633;DHT22;11993;48.748;9.166;2022-09-09T05:11:17;14.60;74.40
23633;DHT22;11993;48.748;9.166;2022-09-09T05:13:44;14.70;74.60
23633;DHT22;11993;48.748;9.166;2022-09-09T05:16:10;14.70;74.60
23633;DHT22;11993;48.748;9.166;2022-09-09T05:18:37;14.70;74.70
23633;DHT22;11993;48.748;9.166;2022-09-09T05:21:03;14.80;74.20
23633;DHT22;11993;48.748;9.166;2022-09-09T05:23:29;14.80;74.10
23633;DHT22;11993;48.748;9.166;2022-09-09T05:25:57;15.00;74.00
23633;DHT22;11993;48.748;9.166;2022-09-09T05:28:24;15.10;73.70
23633;DHT22;11993;48.748;9.166;2022-09-09T05:31:03;14.90;73.70
23633;DHT22;11993;48.748;9.166;2022-09-09T05:33:34;15.10;73.20
23633;DHT22;11993;48.748;9.166;2022-09-09T05:36:14;15.30;72.60
23633;DHT22;11993;48.748;9.166;2022-09-09T05:38:40;15.30;72.50
23633;DHT22;11993;48.748;9.166;2022-09-09T05:41:06;15.40;72.30
23633;DHT22;11993;48.748;9.166;2022-09-09T05:43:33;15.30;72.60
23633;DHT22;11993;48.748;9.166;2022-09-09T05:46:11;15.40;72.20
23633;DHT22;11993;48.748;9.166;2022-09-09T05:48:39;15.50;72.00
23633;DHT22;11993;48.748;9.166;2022-09-09T05:51:07;15.40;72.30
23633;DHT22;11993;48.748;9.166;2022-09-09T05:53:33;15.50;72.30
23633;DHT22;11993;48.748;9.166;2022-09-09T05:56:14;15.50;72.30
23633;DHT22;11993;48.748;9.166;2022-09-09T05:58:40;15.60;72.10
23633;DHT22;11993;48.748;9.166;2022-09-09T06:01:14;15.60;71.90
23633;DHT22;11993;48.748;9.166;2022-09-09T06:03:42;15.60;72.30
23633;DHT22;11993;48.748;9.166;2022-09-09T06:06:10;15.60;72.20
23633;DHT22;11993;48.748;9.166;2022-09-09T06:08:38;15.60;72.30
23633;DHT22;11993;48.748;9.166;2022-09-09T06:11:07;15.60;72.40
23633;DHT22;11993;48.748;9.166;2022-09-09T06:13:33;15.60;72.60
23633;DHT22;11993;48.748;9.166;2022-09-09T06:16:00;15.60;72.90
23633;DHT22;11993;48.748;9.166;2022-09-09T06:18:26;15.50;73.10
23633;DHT22;11993;48.748;9.166;2022-09-09T06:23:26;15.60;73.00
23633;DHT22;11993;48.748;9.166;2022-09-09T06:26:01;15.60;73.20
23633;DHT22;11993;48.748;9.166;2022-09-09T06:28:27;15.60;73.30
23633;DHT22;11993;48.748;9.166;2022-09-09T06:31:10;15.70;73.00
23633;DHT22;11993;48.748;9.166;2022-09-09T06:33:38;15.70;72.90
23633;DHT22;11993;48.748;9.166;2022-09-09T06:36:15;15.90;72.50
23633;DHT22;11993;48.748;9.166;2022-09-09T06:38:41;15.80;72.90
23633;DHT22;11993;48.748;9.166;2022-09-09T06:41:08;15.90;72.80
23633;DHT22;11993;48.748;9.166;2022-09-09T06:43:35;15.90;72.80
23633;DHT22;11993;48.748;9.166;2022-09-09T06:46:05;15.90;72.80
23633;DHT22;11993;48.748;9.166;2022-09-09T06:48:31;16.10;72.40
23633;DHT22;11993;48.748;9.166;2022-09-09T06:51:06;16.20;72.10
23633;DHT22;11993;48.748;9.166;2022-09-09T06:53:34;16.40;71.70
23633;DHT22;11993;48.748;9.166;2022-09-09T06:56:21;16.50;71.40
23633;DHT22;11993;48.748;9.166;2022-09-09T06:58:49;16.40;71.50
23633;DHT22;11993;48.748;9.166;2022-09-09T07:01:17;16.50;71.10
23633;DHT22;11993;48.748;9.166;2022-09-09T07:03:49;16.70;70.50
23633;DHT22;11993;48.748;9.166;2022-09-09T07:06:18;16.90;70.00
23633;DHT22;11993;48.748;9.166;2022-09-09T07:08:48;17.00;69.50
23633;DHT22;11993;48.748;9.166;2022-09-09T07:11:14;17.10;69.30
23633;DHT22;11993;48.748;9.166;2022-09-09T07:13:39;17.30;68.80
23633;DHT22;11993;48.748;9.166;2022-09-09T07:16:10;17.40;69.00
23633;DHT22;11993;48.748;9.166;2022-09-09T07:18:36;17.30;68.80
23633;DHT22;11993;48.748;9.166;2022-09-09T07:21:02;17.40;68.20
23633;DHT22;11993;48.748;9.166;2022-09-09T07:23:29;17.60;67.70
23633;DHT22;11993;48.748;9.166;2022-09-09T07:25:55;17.70;67.40
23633;DHT22;11993;48.748;9.166;2022-09-09T07:28:21;17.70;67.30
23633;DHT22;11993;48.748;9.166;2022-09-09T07:31:01;18.10;66.30
23633;DHT22;11993;48.748;9.166;2022-09-09T07:33:32;18.10;66.20
23633;DHT22;11993;48.748;9.166;2022-09-09T07:36:07;18.40;65.80
23633;DHT22;11993;48.748;9.166;2022-09-09T07:38:44;18.40;64.90
23633;DHT22;11993;48.748;9.166;2022-09-09T07:41:14;18.60;64.40
23633;DHT22;11993;48.748;9.166;2022-09-09T07:43:42;19.10;63.90
23633;DHT22;11993;48.748;9.166;2022-09-09T07:46:08;19.40;62.00
23633;DHT22;11993;48.748;9.166;2022-09-09T07:48:34;19.20;62.20
23633;DHT22;11993;48.748;9.166;2022-09-09T07:51:06;19.10;62.90
23633;DHT22;11993;48.748;9.166;2022-09-09T07:53:31;19.10;63.20
23633;DHT22;11993;48.748;9.166;2022-09-09T07:56:09;19.10;63.00
23633;DHT22;11993;48.748;9.166;2022-09-09T07:58:36;19.30;62.90
23633;DHT22;11993;48.748;9.166;2022-09-09T08:01:10;19.50;61.80
23633;DHT22;11993;48.748;9.166;2022-09-09T08:03:36;20.10;60.90
23633;DHT22;11993;48.748;9.166;2022-09-09T08:06:04;20.10;60.50
23633;DHT22;11993;48.748;9.166;2022-09-09T08:08:31;20.10;59.70
23633;DHT22;11993;48.748;9.166;2022-09-09T08:11:15;20.20;59.00
23633;DHT22;11993;48.748;9.166;2022-09-09T08:13:42;20.10;59.10
23633;DHT22;11993;48.748;9.166;2022-09-09T08:16:13;20.00;60.00
23633;DHT22;11993;48.748;9.166;2022-09-09T08:18:39;20.00;60.20
23633;DHT22;11993;48.748;9.166;2022-09-09T08:21:11;20.30;59.40
23633;DHT22;11993;48.748;9.166;2022-09-09T08:23:38;20.40;59.80
23633;DHT22;11993;48.748;9.166;2022-09-09T08:26:06;21.00;58.60
23633;DHT22;11993;48.748;9.166;2022-09-09T08:28:31;21.00;58.80
23633;DHT22;11993;48.748;9.166;2022-09-09T08:31:05;20.90;57.60
23633;DHT22;11993;48.748;9.166;2022-09-09T08:33:32;21.30;57.70
23633;DHT22;11993;48.748;9.166;2022-09-09T08:36:00;21.00;56.50
23633;DHT22;11993;48.748;9.166;2022-09-09T08:38:25;21.10;57.00
23633;DHT22;11993;48.748;9.166;2022-09-09T08:40:53;21.30;56.00
23633;DHT22;11993;48.748;9.166;2022-09-09T08:43:28;20.90;56.90
23633;DHT22;11993;48.748;9.166;2022-09-09T08:46:11;21.10;57.10
23633;DHT22;11993;48.748;9.166;2022-09-09T08:48:44;21.00;57.30
23633;DHT22;11993;48.748;9.166;2022-09-09T08:51:13;21.30;55.90
23633;DHT22;11993;48.748;9.166;2022-09-09T08:53:45;20.90;56.30
23633;DHT22;11993;48.748;9.166;2022-09-09T08:56:14;21.30;55.40
23633;DHT22;11993;48.748;9.166;2022-09-09T08:59:02;21.30;55.20
23633;DHT22;11993;48.748;9.166;2022-09-09T09:01:33;22.10;53.60
23633;DHT22;11993;48.748;9.166;2022-09-09T09:04:33;21.90;53.10
23633;DHT22;11993;48.748;9.166;2022-09-09T09:07:15;22.50;52.40
23633;DHT22;11993;48.748;9.166;2022-09-09T09:12:39;21.70;52.50
23633;DHT22;11993;48.748;9.166;2022-09-09T09:15:16;21.30;53.20
23633;DHT22;11993;48.748;9.166;2022-09-09T09:17:43;20.90;54.00
23633;DHT22;11993;48.748;9.166;2022-09-09T09:20:14;20.50;56.00
23633;DHT22;11993;48.748;9.166;2022-09-09T09:22:48;20.00;58.60
23633;DHT22;11993;48.748;9.166;2022-09-09T09:25:24;19.70;62.20
23633;DHT22;11993;48.748;9.166;2022-09-09T09:31:03;18.90;66.60
23633;DHT22;11993;48.748;9.166;2022-09-09T09:33:51;17.80;68.00
23633;DHT22;11993;48.748;9.166;2022-09-09T09:36:18;17.60;68.00
23633;DHT22;11993;48.748;9.166;2022-09-09T09:38:59;17.70;66.90
23633;DHT22;11993;48.748;9.166;2022-09-09T09:41:42;18.20;67.60
23633;DHT22;11993;48.748;9.166;2022-09-09T09:46:51;19.00;67.00
23633;DHT22;11993;48.748;9.166;2022-09-09T09:49:19;19.50;67.60
23633;DHT22;11993;48.748;9.166;2022-09-09T09:51:45;19.60;64.90
23633;DHT22;11993;48.748;9.166;2022-09-09T09:54:20;19.80;65.00
23633;DHT22;11993;48.748;9.166;2022-09-09T09:56:48;20.50;64.60
23633;DHT22;11993;48.748;9.166;2022-09-09T10:01:52;21.50;58.50
23633;DHT22;11993;48.748;9.166;2022-09-09T10:04:21;21.80;57.50
23633;DHT22;11993;48.748;9.166;2022-09-09T10:06:49;22.20;57.30
23633;DHT22;11993;48.748;9.166;2022-09-09T10:09:29;21.90;57.50
23633;DHT22;11993;48.748;9.166;2022-09-09T10:14:46;22.00;58.00
23633;DHT22;11993;48.748;9.166;2022-09-09T10:17:27;22.40;56.90
23633;DHT22;11993;48.748;9.166;2022-09-09T10:20:14;22.00;57.70
23633;DHT22;11993;48.748;9.166;2022-09-09T10:22:50;22.80;57.40
23633;DHT22;11993;48.748;9.166;2022-09-09T10:25:48;22.60;57.30
23633;DHT22;11993;48.748;9.166;2022-09-09T10:31:22;23.20;54.60
23633;DHT22;11993;48.748;9.166;2022-09-09T10:36:24;23.90;54.30
23633;DHT22;11993;48.748;9.166;2022-09-09T10:39:05;22.60;54.20
23633;DHT22;11993;48.748;9.166;2022-09-09T10:41:52;22.80;55.80
23633;DHT22;11993;48.748;9.166;2022-09-09T10:49:59;22.10;56.30
23633;DHT22;11993;48.748;9.166;2022-09-09T10:55:27;21.90;57.70
23633;DHT22;11993;48.748;9.166;2022-09-09T10:57:59;21.60;58.80
23633;DHT22;11993;48.748;9.166;2022-09-09T11:00:41;22.10;57.90
23633;DHT22;11993;48.748;9.166;2022-09-09T11:03:18;23.40;55.30
23633;DHT22;11993;48.748;9.166;2022-09-09T11:08:29;23.30;54.00
23633;DHT22;11993;48.748;9.166;2022-09-09T11:11:12;23.00;52.60
23633;DHT22;11993;48.748;9.166;2022-09-09T11:13:49;22.70;54.40
23633;DHT22;11993;48.748;9.166;2022-09-09T11:21:53;22.20;54.50
23633;DHT22;11993;48.748;9.166;2022-09-09T11:24:41;21.90;54.20
23633;DHT22;11993;48.748;9.166;2022-09-09T11:27:28;21.70;54.60
23633;DHT22;11993;48.748;9.166;2022-09-09T11:40:28;20.40;53.00
23633;DHT22;11993;48.748;9.166;2022-09-09T11:43:43;20.60;53.40
23633;DHT22;11993;48.748;9.166;2022-09-09T11:46:08;20.60;53.00
23633;DHT22;11993;48.748;9.166;2022-09-09T11:48:42;20.20;54.30
23633;DHT22;11993;48.748;9.166;2022-09-09T11:56:43;20.30;53.20
23633;DHT22;11993;48.748;9.166;2022-09-09T11:59:24;20.90;52.00
23633;DHT22;11993;48.748;9.166;2022-09-09T12:01:58;21.30;49.60
23633;DHT22;11993;48.748;9.166;2022-09-09T12:06:57;22.60;47.80
23633;DHT22;11993;48.748;9.166;2022-09-09T12:09:28;22.60;46.20
23633;DHT22;11993;48.748;9.166;2022-09-09T12:12:22;21.70;48.10
23633;DHT22;11993;48.748;9.166;2022-09-09T12:17:30;21.50;49.20
23633;DHT22;11993;48.748;9.166;2022-09-09T12:20:17;21.30;49.30
23633;DHT22;11993;48.748;9.166;2022-09-09T12:22:52;21.90;49.20
23633;DHT22;11993;48.748;9.166;2022-09-09T12:28:06;23.60;45.10
23633;DHT22;11993;48.748;9.166;2022-09-09T12:33:23;24.50;39.90
23633;DHT22;11993;48.748;9.166;2022-09-09T12:35:59;23.60;41.60
23633;DHT22;11993;48.748;9.166;2022-09-09T12:38:37;23.70;40.20
23633;DHT22;11993;48.748;9.166;2022-09-09T12:41:04;24.10;39.70
23633;DHT22;11993;48.748;9.166;2022-09-09T12:43:29;23.50;41.80
23633;DHT22;11993;48.748;9.166;2022-09-09T12:45:58;24.00;41.70
23633;DHT22;11993;48.748;9.166;2022-09-09T12:48:41;23.20;42.70
23633;DHT22;11993;48.748;9.166;2022-09-09T12:51:40;23.10;44.60
23633;DHT22;11993;48.748;9.166;2022-09-09T12:54:13;22.00;47.00
23633;DHT22;11993;48.748;9.166;2022-09-09T12:56:39;21.60;48.20
23633;DHT22;11993;48.748;9.166;2022-09-09T12:59:04;21.80;48.80
23633;DHT22;11993;48.748;9.166;2022-09-09T13:01:32;22.00;48.00
23633;DHT22;11993;48.748;9.166;2022-09-09T13:03:59;22.60;46.70
23633;DHT22;11993;48.748;9.166;2022-09-09T13:06:30;22.10;46.10
23633;DHT22;11993;48.748;9.166;2022-09-09T13:09:00;22.60;45.90
23633;DHT22;11993;48.748;9.166;2022-09-09T13:11:29;22.80;45.80
23633;DHT22;11993;48.748;9.166;2022-09-09T13:13:57;22.50;45.40
23633;DHT22;11993;48.748;9.166;2022-09-09T13:16:29;22.10;46.80
23633;DHT22;11993;48.748;9.166;2022-09-09T13:19:07;21.90;46.70
23633;DHT22;11993;48.748;9.166;2022-09-09T13:21:38;22.80;45.50
23633;DHT22;11993;48.748;9.166;2022-09-09T13:24:33;23.10;44.70
23633;DHT22;11993;48.748;9.166;2022-09-09T13:27:18;22.50;45.30
23633;DHT22;11993;48.748;9.166;2022-09-09T13:29:51;23.20;44.30
23633;DHT22;11993;48.748;9.166;2022-09-09T13:32:23;23.20;44.80
23633;DHT22;11993;48.748;9.166;2022-09-09T13:34:57;24.00;41.20
23633;DHT22;11993;48.748;9.166;2022-09-09T13:37:29;25.00;38.00
23633;DHT22;11993;48.748;9.166;2022-09-09T13:39:56;24.10;39.80
23633;DHT22;11993;48.748;9.166;2022-09-09T13:42:33;24.40;40.10
23633;DHT22;11993;48.748;9.166;2022-09-09T13:45:03;22.60;43.10
23633;DHT22;11993;48.748;9.166;2022-09-09T13:47:34;21.90;45.40
23633;DHT22;11993;48.748;9.166;2022-09-09T13:52:45;22.50;44.50
23633;DHT22;11993;48.748;9.166;2022-09-09T13:55:13;21.90;46.30
23633;DHT22;11993;48.748;9.166;2022-09-09T13:57:38;21.90;46.30
23633;DHT22;11993;48.748;9.166;2022-09-09T14:00:06;21.90;46.40
23633;DHT22;11993;48.748;9.166;2022-09-09T14:02:34;23.10;44.70
23633;DHT22;11993;48.748;9.166;2022-09-09T14:04:59;23.80;42.40
23633;DHT22;11993;48.748;9.166;2022-09-09T14:07:25;24.60;41.10
23633;DHT22;11993;48.748;9.166;2022-09-09T14:09:50;24.10;40.30
23633;DHT22;11993;48.748;9.166;2022-09-09T14:12:17;24.50;39.80
23633;DHT22;11993;48.748;9.166;2022-09-09T14:14:43;24.50;40.30
23633;DHT22;11993;48.748;9.166;2022-09-09T14:17:09;25.10;38.70
23633;DHT22;11993;48.748;9.166;2022-09-09T14:19:35;24.90;38.70
23633;DHT22;11993;48.748;9.166;2022-09-09T14:22:02;24.40;39.50
23633;DHT22;11993;48.748;9.166;2022-09-09T14:24:28;24.20;39.80
23633;DHT22;11993;48.748;9.166;2022-09-09T14:26:54;24.10;39.90
23633;DHT22;11993;48.748;9.166;2022-09-09T14:29:20;24.20;39.30
23633;DHT22;11993;48.748;9.166;2022-09-09T14:31:45;23.80;39.40
23633;DHT22;11993;48.748;9.166;2022-09-09T14:34:11;23.90;39.50
23633;DHT22;11993;48.748;9.166;2022-09-09T14:36:37;23.80;39.90
23633;DHT22;11993;48.748;9.166;2022-09-09T14:39:04;24.10;39.40
23633;DHT22;11993;48.748;9.166;2022-09-09T14:41:30;23.90;39.30
23633;DHT22;11993;48.748;9.166;2022-09-09T14:43:55;23.50;40.30
23633;DHT22;11993;48.748;9.166;2022-09-09T14:46:21;23.60;40.20
23633;DHT22;11993;48.748;9.166;2022-09-09T14:48:47;23.70;40.50
23633;DHT22;11993;48.748;9.166;2022-09-09T14:51:24;23.70;40.30
23633;DHT22;11993;48.748;9.166;2022-09-09T14:53:54;23.20;40.60
23633;DHT22;11993;48.748;9.166;2022-09-09T14:56:22;23.60;40.20
23633;DHT22;11993;48.748;9.166;2022-09-09T14:58:48;23.80;40.10
23633;DHT22;11993;48.748;9.166;2022-09-09T15:01:16;24.10;39.40
23633;DHT22;11993;48.748;9.166;2022-09-09T15:03:43;23.30;40.50
23633;DHT22;11993;48.748;9.166;2022-09-09T15:06:14;23.60;40.30
23633;DHT22;11993;48.748;9.166;2022-09-09T15:08:44;23.50;40.30
23633;DHT22;11993;48.748;9.166;2022-09-09T15:11:11;23.10;41.40
23633;DHT22;11993;48.748;9.166;2022-09-09T15:13:38;23.10;40.60
23633;DHT22;11993;48.748;9.166;2022-09-09T15:16:09;23.10;41.70
23633;DHT22;11993;48.748;9.166;2022-09-09T15:18:35;23.10;42.70
23633;DHT22;11993;48.748;9.166;2022-09-09T15:21:02;22.90;42.20
23633;DHT22;11993;48.748;9.166;2022-09-09T15:23:33;22.40;42.70
23633;DHT22;11993;48.748;9.166;2022-09-09T15:25:59;22.10;43.60
23633;DHT22;11993;48.748;9.166;2022-09-09T15:28:25;21.80;44.30
23633;DHT22;11993;48.748;9.166;2022-09-09T15:30:52;22.00;43.90
23633;DHT22;11993;48.748;9.166;2022-09-09T15:33:18;22.60;43.00
23633;DHT22;11993;48.748;9.166;2022-09-09T15:35:44;22.60;42.70
23633;DHT22;11993;48.748;9.166;2022-09-09T15:38:10;22.60;42.80
23633;DHT22;11993;48.748;9.166;2022-09-09T15:40:41;22.50;42.90
23633;DHT22;11993;48.748;9.166;2022-09-09T15:43:07;22.20;43.80
23633;DHT22;11993;48.748;9.166;2022-09-09T15:45:33;22.00;44.10
23633;DHT22;11993;48.748;9.166;2022-09-09T15:48:00;21.70;44.70
23633;DHT22;11993;48.748;9.166;2022-09-09T15:50:26;21.60;45.10
23633;DHT22;11993;48.748;9.166;2022-09-09T15:52:52;21.20;45.20
23633;DHT22;11993;48.748;9.166;2022-09-09T15:55:18;21.10;45.90
23633;DHT22;11993;48.748;9.166;2022-09-09T15:57:45;20.90;46.10
23633;DHT22;11993;48.748;9.166;2022-09-09T16:00:11;20.90;46.00
23633;DHT22;11993;48.748;9.166;2022-09-09T16:02:38;20.70;45.80
23633;DHT22;11993;48.748;9.166;2022-09-09T16:05:04;20.60;45.90
23633;DHT22;11993;48.748;9.166;2022-09-09T16:07:30;20.70;46.00
23633;DHT22;11993;48.748;9.166;2022-09-09T16:09:56;20.70;45.80
23633;DHT22;11993;48.748;9.166;2022-09-09T16:12:21;20.90;46.00
23633;DHT22;11993;48.748;9.166;2022-09-09T16:14:47;21.00;46.30
23633;DHT22;11993;48.748;9.166;2022-09-09T16:17:12;20.90;46.20
23633;DHT22;11993;48.748;9.166;2022-09-09T16:19:39;21.10;46.10
23633;DHT22;11993;48.748;9.166;2022-09-09T16:22:05;21.00;46.10
23633;DHT22;11993;48.748;9.166;2022-09-09T16:24:32;21.00;46.20
23633;DHT22;11993;48.748;9.166;2022-09-09T16:26:58;20.80;46.20
23633;DHT22;11993;48.748;9.166;2022-09-09T16:29:24;20.70;46.80
23633;DHT22;11993;48.748;9.166;2022-09-09T16:31:53;20.50;47.00
23633;DHT22;11993;48.748;9.166;2022-09-09T16:34:19;20.60;47.10
23633;DHT22;11993;48.748;9.166;2022-09-09T16:36:46;20.60;46.50
23633;DHT22;11993;48.748;9.166;2022-09-09T16:39:18;20.60;47.10
23633;DHT22;11993;48.748;9.166;2022-09-09T16:41:45;20.50;48.00
23633;DHT22;11993;48.748;9.166;2022-09-09T16:44:14;20.40;48.90
23633;DHT22;11993;48.748;9.166;2022-09-09T16:46:43;20.30;49.90
23633;DHT22;11993;48.748;9.166;2022-09-09T16:49:10;20.10;50.40
23633;DHT22;11993;48.748;9.166;2022-09-09T16:51:39;20.10;50.70
23633;DHT22;11993;48.748;9.166;2022-09-09T16:54:06;19.90;50.20
23633;DHT22;11993;48.748;9.166;2022-09-09T16:56:34;19.90;50.10
23633;DHT22;11993;48.748;9.166;2022-09-09T16:59:05;19.60;50.80
23633;DHT22;11993;48.748;9.166;2022-09-09T17:01:33;19.60;51.80
23633;DHT22;11993;48.748;9.166;2022-09-09T17:04:02;19.60;51.90
23633;DHT22;11993;48.748;9.166;2022-09-09T17:06:29;19.40;50.50
23633;DHT22;11993;48.748;9.166;2022-09-09T17:08:56;19.40;50.60
23633;DHT22;11993;48.748;9.166;2022-09-09T17:11:22;19.50;50.80
23633;DHT22;11993;48.748;9.166;2022-09-09T17:13:49;19.60;50.80
23633;DHT22;11993;48.748;9.166;2022-09-09T17:16:17;19.60;50.70
23633;DHT22;11993;48.748;9.166;2022-09-09T17:18:43;19.40;51.60
23633;DHT22;11993;48.748;9.166;2022-09-09T17:21:16;19.40;51.40
23633;DHT22;11993;48.748;9.166;2022-09-09T17:23:43;19.30;52.30
23633;DHT22;11993;48.748;9.166;2022-09-09T17:26:12;19.30;52.70
23633;DHT22;11993;48.748;9.166;2022-09-09T17:28:38;19.10;53.30
23633;DHT22;11993;48.748;9.166;2022-09-09T17:31:06;19.20;53.50